Time;durP1;ratioP1;P1;durP2;ratioP2;P2;SDS_P1;SDS_P2;PMS_P1;PMS_P2;Temp;Humidity;BMP_temperature;BMP_pressure;BME280_temperature;BME280_humidity;BME280_pressure;Samples;Min_cycle;Max_cycle;Signal;HPM_P1;HPM_P2
2022/07/18 00:02:15;;;;;;;1.88;0.80;;;24.50;46.50;;;;;;5048451;28;21037;-79
2022/07/18 00:04:43;;;;;;;3.80;0.50;;;24.50;46.50;;;;;;5056022;28;20206;-77
2022/07/18 00:07:12;;;;;;;0.63;0.50;;;24.40;46.20;;;;;;5057599;28;20896;-76
2022/07/18 00:09:41;;;;;;;2.65;0.47;;;24.40;46.90;;;;;;5048937;28;20713;-75
2022/07/18 00:12:11;;;;;;;1.02;0.93;;;24.40;47.00;;;;;;5053940;28;20198;-76
2022/07/18 00:14:41;;;;;;;2.63;0.57;;;24.40;47.10;;;;;;5042131;28;20774;-79
2022/07/18 00:17:09;;;;;;;1.30;0.50;;;24.40;47.10;;;;;;5053890;28;20478;-76
2022/07/18 00:19:38;;;;;;;0.45;0.40;;;24.30;47.00;;;;;;5054462;28;20870;-78
2022/07/18 00:22:06;;;;;;;1.75;0.50;;;24.40;47.00;;;;;;5057371;28;20198;-78
2022/07/18 00:24:37;;;;;;;2.05;0.75;;;24.40;47.30;;;;;;5061649;28;20869;-76
2022/07/18 00:27:07;;;;;;;0.82;0.43;;;24.40;47.40;;;;;;5053286;28;20535;-78
2022/07/18 00:29:36;;;;;;;3.85;0.60;;;24.40;47.30;;;;;;5061167;28;20249;-80
2022/07/18 00:32:08;;;;;;;0.73;0.50;;;24.40;47.30;;;;;;5050333;28;20210;-75
2022/07/18 00:34:37;;;;;;;0.88;0.50;;;24.40;47.40;;;;;;5052296;28;20826;-75
2022/07/18 00:37:05;;;;;;;1.38;0.50;;;24.40;47.30;;;;;;5063015;28;20198;-74
2022/07/18 00:39:34;;;;;;;0.75;0.47;;;24.30;47.40;;;;;;5047299;28;20194;-76
2022/07/18 00:42:02;;;;;;;1.98;0.50;;;24.30;47.60;;;;;;5045994;28;20203;-76
2022/07/18 00:44:30;;;;;;;1.13;0.52;;;24.40;47.70;;;;;;5043197;28;20230;-76
2022/07/18 00:47:01;;;;;;;1.83;0.50;;;24.30;47.60;;;;;;5045095;28;20191;-75
2022/07/18 00:49:32;;;;;;;1.77;0.57;;;24.30;47.40;;;;;;5046762;28;21771;-76
2022/07/18 00:52:01;;;;;;;1.65;0.60;;;24.40;47.80;;;;;;5047928;28;20194;-76
2022/07/18 00:54:31;;;;;;;2.67;0.38;;;24.30;47.70;;;;;;5046490;28;20201;-75
2022/07/18 00:57:00;;;;;;;0.77;0.50;;;24.40;48.00;;;;;;5046197;28;20600;-77
2022/07/18 01:02:11;;;;;;;2.60;0.60;;;24.30;48.20;;;;;;5050820;28;20194;-75
2022/07/18 01:04:42;;;;;;;2.20;0.50;;;24.30;48.30;;;;;;5050180;28;20223;-76
2022/07/18 01:07:11;;;;;;;2.60;0.43;;;24.30;49.30;;;;;;5050394;28;20199;-77
2022/07/18 01:09:40;;;;;;;1.88;0.47;;;24.30;49.10;;;;;;5051301;28;20870;-75
2022/07/18 01:12:09;;;;;;;1.73;0.50;;;24.30;49.60;;;;;;5049578;28;20198;-76
2022/07/18 01:14:38;;;;;;;1.00;0.60;;;24.30;49.50;;;;;;5051197;28;20197;-76
2022/07/18 01:17:14;;;;;;;3.03;0.50;;;24.30;49.90;;;;;;5074044;28;20189;-77
2022/07/18 01:19:45;;;;;;;2.17;0.40;;;24.20;50.00;;;;;;5052938;28;20186;-75
2022/07/18 01:22:17;;;;;;;3.42;0.65;;;24.20;50.00;;;;;;5063109;28;20209;-76
2022/07/18 01:24:46;;;;;;;0.70;0.50;;;24.20;50.40;;;;;;5064872;28;20583;-79
2022/07/18 01:27:16;;;;;;;1.95;0.70;;;24.10;50.70;;;;;;5048604;28;20199;-78
2022/07/18 01:29:44;;;;;;;1.70;0.60;;;24.00;50.80;;;;;;5049307;28;20230;-78
2022/07/18 01:32:13;;;;;;;1.15;0.63;;;24.00;50.70;;;;;;5049138;28;20195;-76
2022/07/18 01:34:43;;;;;;;0.93;0.55;;;24.00;51.10;;;;;;5062678;28;20240;-77
2022/07/18 01:37:12;;;;;;;2.25;0.65;;;23.90;50.90;;;;;;5051254;28;20194;-77
2022/07/18 01:39:42;;;;;;;1.13;0.60;;;23.90;50.70;;;;;;5048895;28;20198;-77
2022/07/18 01:42:11;;;;;;;2.80;0.55;;;23.90;50.80;;;;;;5059125;28;20200;-77
2022/07/18 01:44:40;;;;;;;0.88;0.50;;;23.90;50.70;;;;;;5064819;28;20811;-77
2022/07/18 01:47:10;;;;;;;3.67;0.60;;;23.90;50.50;;;;;;5065433;28;20199;-75
2022/07/18 01:49:39;;;;;;;3.30;0.50;;;23.80;50.40;;;;;;5053254;28;20230;-76
2022/07/18 01:52:09;;;;;;;2.20;0.60;;;23.80;50.40;;;;;;5057324;28;20200;-76
2022/07/18 01:54:38;;;;;;;2.05;0.60;;;23.80;50.20;;;;;;5057126;28;20191;-75
2022/07/18 01:57:08;;;;;;;0.70;0.45;;;23.80;50.20;;;;;;5061018;28;20202;-76
2022/07/18 01:59:37;;;;;;;1.75;0.50;;;23.80;50.10;;;;;;5059145;28;20217;-76
2022/07/18 02:02:06;;;;;;;0.63;0.50;;;23.80;50.00;;;;;;5066721;28;20202;-78
2022/07/18 02:07:20;;;;;;;0.98;0.40;;;23.70;50.00;;;;;;5059021;28;20187;-75
2022/07/18 02:09:49;;;;;;;1.02;0.50;;;23.70;50.80;;;;;;5048212;28;20227;-78
2022/07/18 02:12:18;;;;;;;0.60;0.50;;;23.70;50.20;;;;;;5048819;28;20187;-77
2022/07/18 02:14:47;;;;;;;0.73;0.35;;;23.60;50.00;;;;;;5050066;28;20190;-76
2022/07/18 02:17:15;;;;;;;0.98;0.50;;;23.60;50.00;;;;;;5049467;28;20205;-78
2022/07/18 02:19:44;;;;;;;1.60;0.70;;;23.60;50.30;;;;;;5045795;28;20201;-77
2022/07/18 02:22:12;;;;;;;1.25;0.80;;;23.60;50.40;;;;;;5052622;28;20202;-77
2022/07/18 02:24:41;;;;;;;1.92;0.50;;;23.50;50.20;;;;;;5047464;28;20807;-77
2022/07/18 02:27:09;;;;;;;1.25;0.52;;;23.50;50.10;;;;;;5048319;28;20199;-77
2022/07/18 02:29:40;;;;;;;0.30;0.30;;;23.50;50.10;;;;;;5050198;28;20211;-77
2022/07/18 02:32:08;;;;;;;0.95;0.40;;;23.50;50.10;;;;;;5052176;28;20186;-77
2022/07/18 02:34:36;;;;;;;0.80;0.40;;;23.50;50.20;;;;;;5062316;28;20558;-78
2022/07/18 02:37:05;;;;;;;1.27;0.50;;;23.50;50.20;;;;;;5048344;28;20206;-76
2022/07/18 02:39:34;;;;;;;0.50;0.45;;;23.50;50.20;;;;;;5060537;28;20191;-75
2022/07/18 02:42:02;;;;;;;2.00;0.40;;;23.50;50.30;;;;;;5055976;28;20200;-77
2022/07/18 02:44:31;;;;;;;1.10;0.50;;;23.50;50.20;;;;;;5064615;28;20849;-76
2022/07/18 02:47:01;;;;;;;1.10;0.57;;;23.40;50.40;;;;;;5061768;28;20191;-76
2022/07/18 02:49:29;;;;;;;0.40;0.40;;;23.40;50.40;;;;;;5053818;28;20576;-76
2022/07/18 02:52:00;;;;;;;2.28;0.60;;;23.40;50.40;;;;;;5064796;28;20202;-77
2022/07/18 02:54:29;;;;;;;1.60;0.43;;;23.40;50.40;;;;;;5055834;28;20551;-75
2022/07/18 02:56:57;;;;;;;2.30;0.77;;;23.40;50.50;;;;;;5062711;28;20202;-76
2022/07/18 02:59:27;;;;;;;2.60;0.40;;;23.40;50.60;;;;;;5049884;28;20707;-80
2022/07/18 03:01:55;;;;;;;1.95;0.65;;;23.40;50.60;;;;;;5054728;28;20705;-77
2022/07/18 03:04:25;;;;;;;0.43;0.40;;;23.40;50.60;;;;;;5066758;28;20569;-77
2022/07/18 03:06:54;;;;;;;0.30;0.30;;;23.40;50.60;;;;;;5051405;28;20206;-78
2022/07/18 03:09:23;;;;;;;2.17;0.50;;;23.40;50.70;;;;;;5050949;28;20233;-76
2022/07/18 03:11:51;;;;;;;0.52;0.40;;;23.40;50.70;;;;;;5049616;28;20209;-78
2022/07/18 03:14:19;;;;;;;1.52;0.40;;;23.40;50.70;;;;;;5047947;28;20572;-77
2022/07/18 03:16:48;;;;;;;0.80;0.43;;;23.40;50.60;;;;;;5050949;28;20197;-80
2022/07/18 03:19:16;;;;;;;1.17;0.63;;;23.40;50.70;;;;;;5052727;28;20277;-74
2022/07/18 03:21:46;;;;;;;0.90;0.40;;;23.40;50.60;;;;;;5048511;28;20197;-76
2022/07/18 03:24:14;;;;;;;0.43;0.43;;;23.40;50.70;;;;;;5051966;28;20198;-77
2022/07/18 03:26:44;;;;;;;1.10;0.43;;;23.40;50.70;;;;;;5046037;28;21176;-76
2022/07/18 03:29:12;;;;;;;0.35;0.35;;;23.50;50.80;;;;;;5048177;28;20776;-76
2022/07/18 03:31:41;;;;;;;1.17;0.52;;;23.50;50.70;;;;;;5049220;28;20194;-76
2022/07/18 03:34:09;;;;;;;0.88;0.40;;;23.50;50.70;;;;;;5049592;28;20216;-77
2022/07/18 03:36:38;;;;;;;1.23;0.40;;;23.50;50.70;;;;;;5048051;28;20210;-76
2022/07/18 03:39:08;;;;;;;1.38;0.50;;;23.60;50.70;;;;;;5056771;28;20882;-77
2022/07/18 03:41:37;;;;;;;2.05;1.02;;;23.60;50.70;;;;;;5049081;28;20195;-77
2022/07/18 03:44:06;;;;;;;1.30;0.40;;;23.60;50.70;;;;;;5046507;28;20198;-78
2022/07/18 03:46:35;;;;;;;2.50;0.40;;;23.60;50.70;;;;;;5053378;28;20186;-76
2022/07/18 03:49:04;;;;;;;0.90;0.50;;;23.70;50.70;;;;;;5066388;28;20285;-76
2022/07/18 03:51:33;;;;;;;1.77;0.60;;;23.70;50.70;;;;;;5050773;28;20200;-76
2022/07/18 03:54:01;;;;;;;2.67;0.60;;;23.70;50.60;;;;;;5049161;28;20190;-76
2022/07/18 03:56:31;;;;;;;0.90;0.50;;;23.70;50.70;;;;;;5047901;28;20190;-77
2022/07/18 03:59:00;;;;;;;1.02;0.50;;;23.70;50.60;;;;;;5048721;28;20191;-76
2022/07/18 04:01:28;;;;;;;1.23;0.70;;;23.70;50.60;;;;;;5046709;28;20194;-75
2022/07/18 04:03:57;;;;;;;2.15;0.50;;;23.80;50.70;;;;;;5047171;28;20214;-77
2022/07/18 04:06:25;;;;;;;2.25;0.60;;;23.80;50.60;;;;;;5048700;28;20253;-76
2022/07/18 04:08:54;;;;;;;3.10;0.50;;;23.80;50.60;;;;;;5052270;28;20209;-75
2022/07/18 04:11:23;;;;;;;2.90;0.47;;;23.80;50.70;;;;;;5047598;28;20218;-75
2022/07/18 04:13:54;;;;;;;0.55;0.50;;;23.80;50.50;;;;;;5046830;28;20197;-73
2022/07/18 04:16:24;;;;;;;1.05;0.55;;;23.70;50.30;;;;;;5067085;28;20194;-76
2022/07/18 04:18:52;;;;;;;9.45;0.90;;;23.70;50.30;;;;;;5047549;28;20203;-76
2022/07/18 04:21:21;;;;;;;2.05;0.60;;;23.70;50.40;;;;;;5046498;28;20206;-78
2022/07/18 04:23:49;;;;;;;1.83;0.50;;;23.70;50.40;;;;;;5059605;28;20189;-76
2022/07/18 04:26:18;;;;;;;0.70;0.50;;;23.70;50.40;;;;;;5061987;28;20225;-75
2022/07/18 04:28:46;;;;;;;1.50;0.65;;;23.80;50.50;;;;;;5060491;28;20201;-75
2022/07/18 04:31:16;;;;;;;0.55;0.40;;;23.70;50.60;;;;;;5056997;28;20633;-77
2022/07/18 04:33:44;;;;;;;1.27;0.50;;;23.70;50.60;;;;;;5050926;28;20218;-76
2022/07/18 04:36:13;;;;;;;1.48;0.60;;;23.80;50.60;;;;;;5067631;28;20193;-75
2022/07/18 04:38:41;;;;;;;1.80;0.40;;;23.80;50.60;;;;;;5055758;28;20198;-75
2022/07/18 04:41:09;;;;;;;2.35;0.40;;;23.80;50.90;;;;;;5053292;28;20202;-76
2022/07/18 04:43:38;;;;;;;0.80;0.40;;;23.80;50.60;;;;;;5056290;28;20701;-78
2022/07/18 04:46:06;;;;;;;0.95;0.52;;;23.80;50.50;;;;;;5052914;28;20223;-75
2022/07/18 04:48:38;;;;;;;1.05;0.60;;;23.80;50.50;;;;;;5061407;28;20285;-77
2022/07/18 04:51:06;;;;;;;0.88;0.40;;;23.80;50.50;;;;;;5073008;28;20234;-75
2022/07/18 04:53:35;;;;;;;1.15;0.47;;;23.90;50.50;;;;;;5076387;28;20193;-75
2022/07/18 04:56:03;;;;;;;1.48;0.50;;;23.90;50.40;;;;;;5067460;28;20197;-75
2022/07/18 04:58:32;;;;;;;1.90;0.57;;;23.90;50.50;;;;;;5063938;28;20212;-77
2022/07/18 05:01:00;;;;;;;1.30;0.63;;;23.90;50.50;;;;;;5054128;28;20315;-76
2022/07/18 05:03:29;;;;;;;2.35;0.70;;;23.90;50.60;;;;;;5060462;28;20194;-76
2022/07/18 05:05:58;;;;;;;1.38;0.47;;;23.90;50.60;;;;;;5058992;28;20193;-74
2022/07/18 05:08:27;;;;;;;1.23;0.50;;;23.90;50.60;;;;;;5059417;28;20198;-76
2022/07/18 05:10:55;;;;;;;3.53;0.75;;;23.90;50.60;;;;;;5053487;28;20601;-77
2022/07/18 05:13:23;;;;;;;0.50;0.50;;;23.90;50.70;;;;;;5060140;28;20190;-75
2022/07/18 05:15:52;;;;;;;0.68;0.40;;;23.90;50.70;;;;;;5053891;28;20272;-77
2022/07/18 05:18:20;;;;;;;1.90;0.60;;;23.90;50.70;;;;;;5061043;28;20198;-77
2022/07/18 05:20:49;;;;;;;3.35;0.60;;;24.00;50.80;;;;;;5060004;28;20574;-77
2022/07/18 05:23:19;;;;;;;3.53;0.60;;;24.00;50.80;;;;;;5053376;28;20206;-77
2022/07/18 05:25:48;;;;;;;0.88;0.50;;;24.00;50.90;;;;;;5067184;28;20194;-77
2022/07/18 05:28:16;;;;;;;0.98;0.68;;;24.00;51.00;;;;;;5058026;28;20198;-75
2022/07/18 05:30:44;;;;;;;1.08;0.50;;;24.00;50.90;;;;;;5051789;28;20759;-76
2022/07/18 05:33:13;;;;;;;1.43;0.60;;;24.00;50.70;;;;;;5054384;28;20591;-75
2022/07/18 05:35:41;;;;;;;0.75;0.50;;;24.10;50.70;;;;;;5054983;28;20205;-76
2022/07/18 05:38:10;;;;;;;1.20;0.50;;;24.00;50.60;;;;;;5047800;28;20215;-75
2022/07/18 05:40:39;;;;;;;1.00;0.60;;;24.00;50.50;;;;;;5057114;28;20229;-77
2022/07/18 05:43:08;;;;;;;5.07;1.85;;;24.10;50.30;;;;;;5047756;28;20298;-76
2022/07/18 05:45:37;;;;;;;2.00;0.90;;;24.10;50.40;;;;;;5068648;28;20232;-77
2022/07/18 05:48:06;;;;;;;1.55;0.52;;;24.20;50.40;;;;;;5048503;28;20199;-75
2022/07/18 05:50:35;;;;;;;2.20;0.60;;;24.20;50.40;;;;;;5056731;28;20243;-78
2022/07/18 05:53:03;;;;;;;0.50;0.50;;;24.30;50.40;;;;;;5061754;28;20187;-78
2022/07/18 05:55:34;;;;;;;1.08;0.57;;;24.40;50.50;;;;;;5056882;28;20226;-75
2022/07/18 05:58:04;;;;;;;2.92;0.60;;;24.50;50.60;;;;;;5059467;28;20186;-76
2022/07/18 06:00:33;;;;;;;0.75;0.50;;;24.60;50.50;;;;;;5058712;28;20243;-77
2022/07/18 06:03:01;;;;;;;4.10;0.70;;;24.60;50.40;;;;;;5055697;28;20191;-75
2022/07/18 06:05:30;;;;;;;2.83;1.02;;;24.70;50.40;;;;;;5052323;28;20282;-76
2022/07/18 06:07:58;;;;;;;4.82;1.85;;;24.70;50.40;;;;;;5077950;28;20186;-76
2022/07/18 06:10:27;;;;;;;2.67;1.02;;;24.80;50.50;;;;;;5053151;28;20195;-76
2022/07/18 06:12:56;;;;;;;4.90;1.10;;;24.80;50.40;;;;;;5055041;28;20668;-76
2022/07/18 06:15:26;;;;;;;2.10;1.00;;;24.90;50.30;;;;;;5063014;28;20191;-76
2022/07/18 06:17:54;;;;;;;1.85;1.00;;;25.00;50.30;;;;;;5051262;28;20195;-76
2022/07/18 06:20:23;;;;;;;1.38;0.65;;;25.00;50.30;;;;;;5051584;28;20221;-76
2022/07/18 06:22:51;;;;;;;1.42;0.70;;;25.00;50.20;;;;;;5065101;28;20201;-76
2022/07/18 06:25:20;;;;;;;1.83;0.98;;;25.00;50.10;;;;;;5060852;28;20672;-75
2022/07/18 06:27:48;;;;;;;1.40;0.80;;;25.10;50.20;;;;;;5058679;28;20708;-76
2022/07/18 06:30:16;;;;;;;2.88;0.90;;;25.20;50.20;;;;;;5061845;28;20611;-75
2022/07/18 06:32:46;;;;;;;1.90;0.90;;;25.20;50.10;;;;;;5061779;28;20782;-75
2022/07/18 06:35:15;;;;;;;1.13;0.60;;;25.20;50.00;;;;;;5063446;28;20207;-78
2022/07/18 06:37:43;;;;;;;4.47;1.00;;;25.20;49.70;;;;;;5058047;28;20186;-76
2022/07/18 06:40:12;;;;;;;3.38;0.77;;;25.20;49.70;;;;;;5055297;28;20187;-76
2022/07/18 06:42:41;;;;;;;2.35;0.60;;;25.20;49.60;;;;;;5064505;28;20754;-75
2022/07/18 06:45:10;;;;;;;1.70;0.80;;;25.20;49.50;;;;;;5059989;28;20219;-76
2022/07/18 06:47:43;;;;;;;1.83;0.73;;;25.20;49.40;;;;;;5060742;28;20216;-76
2022/07/18 06:50:14;;;;;;;1.38;0.70;;;25.30;49.20;;;;;;5062939;28;20201;-75
2022/07/18 06:52:44;;;;;;;1.88;0.70;;;25.30;49.10;;;;;;5058358;28;20226;-77
2022/07/18 06:55:13;;;;;;;2.50;1.05;;;25.40;49.20;;;;;;5051824;28;20201;-75
2022/07/18 06:57:42;;;;;;;2.10;0.60;;;25.40;49.20;;;;;;5067849;28;20200;-75
2022/07/18 07:00:13;;;;;;;4.28;0.80;;;25.50;49.20;;;;;;5056281;28;20218;-75
2022/07/18 07:02:43;;;;;;;1.38;0.75;;;25.50;49.10;;;;;;5057844;28;20253;-76
2022/07/18 07:05:14;;;;;;;1.58;0.70;;;25.60;49.20;;;;;;5052547;28;20199;-76
2022/07/18 07:07:43;;;;;;;1.17;0.60;;;25.60;49.20;;;;;;5050099;28;20250;-75
2022/07/18 07:10:17;;;;;;;5.97;0.70;;;25.60;49.00;;;;;;5064137;28;20194;-75
2022/07/18 07:12:47;;;;;;;2.03;0.80;;;25.60;48.90;;;;;;5056779;28;20225;-75
2022/07/18 07:15:18;;;;;;;0.98;0.60;;;25.70;48.60;;;;;;5046359;28;20199;-75
2022/07/18 07:17:46;;;;;;;1.45;0.80;;;25.70;48.50;;;;;;5052910;28;20850;-74
2022/07/18 07:20:19;;;;;;;2.22;0.80;;;25.70;48.30;;;;;;5046186;28;20825;-75
2022/07/18 07:22:49;;;;;;;2.53;0.73;;;25.70;48.10;;;;;;5051445;28;20202;-75
2022/07/18 07:25:20;;;;;;;1.42;0.55;;;25.70;48.10;;;;;;5057220;28;20198;-75
2022/07/18 07:27:48;;;;;;;1.17;0.60;;;25.70;48.10;;;;;;5055232;28;20321;-75
2022/07/18 07:30:18;;;;;;;1.45;0.70;;;25.70;48.20;;;;;;5047603;28;20660;-76
2022/07/18 07:32:48;;;;;;;1.52;0.68;;;25.70;48.10;;;;;;5052315;28;20238;-76
2022/07/18 07:35:19;;;;;;;2.83;0.82;;;25.70;48.10;;;;;;5053563;28;20255;-75
2022/07/18 07:37:49;;;;;;;1.63;0.88;;;25.80;48.30;;;;;;5060772;28;20191;-76
2022/07/18 07:40:18;;;;;;;2.90;0.70;;;25.80;48.40;;;;;;5054076;28;20210;-76
2022/07/18 07:42:47;;;;;;;2.28;0.65;;;25.80;48.30;;;;;;5054329;28;20238;-75
2022/07/18 07:45:16;;;;;;;1.20;0.57;;;25.90;48.20;;;;;;5057206;28;20312;-75
2022/07/18 07:47:45;;;;;;;0.90;0.55;;;26.00;48.30;;;;;;5058580;28;20190;-77
2022/07/18 07:50:14;;;;;;;0.98;0.68;;;26.00;48.20;;;;;;5050927;28;20210;-74
2022/07/18 07:52:43;;;;;;;1.08;0.68;;;26.00;47.60;;;;;;5063476;28;20576;-74
2022/07/18 07:55:12;;;;;;;4.82;0.77;;;26.10;47.40;;;;;;5060809;28;20706;-76
2022/07/18 07:57:40;;;;;;;1.98;0.60;;;26.10;47.40;;;;;;5062395;28;20292;-75
2022/07/18 08:00:09;;;;;;;1.02;0.70;;;26.10;47.30;;;;;;5062386;28;20190;-76
2022/07/18 08:02:38;;;;;;;1.70;0.60;;;26.20;47.40;;;;;;5062233;28;20225;-76
2022/07/18 08:05:07;;;;;;;2.95;0.50;;;26.20;47.40;;;;;;5062290;28;20297;-75
2022/07/18 08:07:35;;;;;;;5.35;0.70;;;26.30;47.50;;;;;;5063349;28;20194;-76
2022/07/18 08:10:06;;;;;;;1.60;0.50;;;26.30;47.30;;;;;;5056838;28;20199;-75
2022/07/18 08:12:34;;;;;;;3.45;1.00;;;26.30;47.30;;;;;;5069084;28;20201;-75
2022/07/18 08:15:03;;;;;;;0.95;0.55;;;26.30;47.40;;;;;;5063779;28;20198;-76
2022/07/18 08:17:31;;;;;;;0.85;0.68;;;26.30;47.10;;;;;;5060156;28;20993;-77
2022/07/18 08:20:00;;;;;;;0.73;0.52;;;26.40;47.20;;;;;;5054532;28;20198;-77
2022/07/18 08:22:28;;;;;;;0.95;0.65;;;26.40;47.30;;;;;;5067245;28;20281;-76
2022/07/18 08:24:56;;;;;;;4.28;0.80;;;26.40;47.30;;;;;;5073574;28;20190;-79
2022/07/18 08:27:28;;;;;;;1.67;1.00;;;26.40;47.20;;;;;;5068105;28;20222;-79
2022/07/18 08:29:57;;;;;;;1.08;0.70;;;26.50;47.60;;;;;;5065329;28;20194;-78
2022/07/18 08:32:35;;;;;;;4.28;0.60;;;26.50;47.30;;;;;;5062584;28;20826;-78
2022/07/18 08:35:05;;;;;;;3.03;0.65;;;26.60;47.30;;;;;;5060157;28;20221;-76
2022/07/18 08:37:33;;;;;;;1.58;0.50;;;26.60;47.20;;;;;;5058396;28;20205;-77
2022/07/18 08:40:02;;;;;;;1.23;0.65;;;26.70;47.10;;;;;;5067432;28;20209;-77
2022/07/18 08:42:34;;;;;;;0.98;0.47;;;26.70;47.20;;;;;;5063348;28;20200;-75
2022/07/18 08:45:13;;;;;;;1.42;0.57;;;26.80;46.70;;;;;;5074506;28;20286;-76
2022/07/18 08:47:41;;;;;;;1.23;0.60;;;26.90;46.70;;;;;;5070284;28;20208;-76
2022/07/18 08:50:10;;;;;;;1.02;0.52;;;27.00;46.30;;;;;;5057646;28;20201;-77
2022/07/18 08:52:40;;;;;;;0.88;0.50;;;27.10;46.00;;;;;;5060352;28;20216;-76
2022/07/18 08:55:23;;;;;;;1.85;0.68;;;27.20;46.40;;;;;;5060830;28;20222;-75
2022/07/18 08:57:55;;;;;;;3.15;0.80;;;27.30;46.00;;;;;;5059887;28;20210;-75
2022/07/18 09:00:24;;;;;;;0.80;0.40;;;27.30;46.00;;;;;;5060234;28;20816;-76
2022/07/18 09:02:59;;;;;;;1.98;0.80;;;27.40;45.60;;;;;;5057558;28;20648;-76
2022/07/18 09:05:28;;;;;;;1.17;0.63;;;27.50;45.50;;;;;;5064278;28;20182;-75
2022/07/18 09:08:12;;;;;;;3.10;0.57;;;27.70;45.40;;;;;;5065383;28;20198;-75
2022/07/18 09:10:43;;;;;;;1.30;0.60;;;27.70;45.50;;;;;;5072692;28;20194;-76
2022/07/18 09:13:12;;;;;;;3.47;0.90;;;27.80;45.20;;;;;;5061080;28;20210;-77
2022/07/18 09:15:58;;;;;;;1.42;0.60;;;27.80;44.90;;;;;;5062367;28;20692;-76
2022/07/18 09:18:31;;;;;;;0.98;0.70;;;27.80;44.80;;;;;;5046248;28;20244;-77
2022/07/18 09:21:07;;;;;;;4.35;0.70;;;27.90;44.90;;;;;;5065904;28;20293;-76
2022/07/18 09:23:37;;;;;;;1.42;0.82;;;27.90;44.30;;;;;;5059789;28;20216;-76
2022/07/18 09:26:07;;;;;;;1.65;0.63;;;27.90;44.20;;;;;;5065773;28;20193;-75
2022/07/18 09:28:54;;;;;;;2.55;1.02;;;27.90;44.50;;;;;;5064670;28;20197;-75
2022/07/18 09:31:49;;;;;;;2.58;0.60;;;27.90;44.00;;;;;;5063749;28;20857;-75
2022/07/18 09:34:34;;;;;;;4.47;0.80;;;28.00;43.80;;;;;;5058410;28;20245;-76
2022/07/18 09:37:03;;;;;;;2.42;0.55;;;28.00;43.70;;;;;;5072611;28;20197;-76
2022/07/18 09:39:33;;;;;;;1.60;0.70;;;28.00;43.20;;;;;;5074070;28;20194;-76
2022/07/18 09:42:14;;;;;;;0.93;0.50;;;28.10;43.50;;;;;;5067749;28;20198;-76
2022/07/18 09:44:44;;;;;;;2.00;0.70;;;28.10;42.80;;;;;;5065326;28;20735;-78
2022/07/18 09:47:12;;;;;;;1.70;0.80;;;28.10;42.60;;;;;;5067534;28;20190;-75
2022/07/18 09:49:42;;;;;;;0.93;0.60;;;28.10;42.90;;;;;;5065910;28;20186;-77
2022/07/18 09:52:11;;;;;;;1.23;0.60;;;28.10;42.80;;;;;;5058918;28;20212;-76
2022/07/18 09:54:40;;;;;;;1.08;0.60;;;28.10;42.80;;;;;;5063297;28;20227;-77
2022/07/18 09:57:09;;;;;;;1.42;0.65;;;28.10;43.10;;;;;;5062699;28;20199;-76
2022/07/18 09:59:38;;;;;;;1.25;0.65;;;28.10;42.90;;;;;;5062743;28;20787;-77
2022/07/18 10:02:17;;;;;;;2.88;0.70;;;28.10;43.10;;;;;;5060650;28;20193;-77
2022/07/18 10:04:46;;;;;;;1.00;0.55;;;28.10;42.80;;;;;;5066028;28;20672;-77
2022/07/18 10:07:16;;;;;;;3.70;0.65;;;28.20;43.20;;;;;;5058057;28;20195;-77
2022/07/18 10:09:45;;;;;;;1.77;0.75;;;28.10;42.90;;;;;;5072456;28;20187;-75
2022/07/18 10:12:15;;;;;;;1.20;0.70;;;28.20;43.10;;;;;;5066098;28;20195;-75
2022/07/18 10:14:45;;;;;;;1.20;0.50;;;28.30;43.10;;;;;;5062482;28;20240;-76
2022/07/18 10:17:13;;;;;;;1.67;0.75;;;28.30;43.30;;;;;;5053833;28;20202;-76
2022/07/18 10:19:43;;;;;;;1.48;0.68;;;28.40;43.30;;;;;;5057879;28;20200;-77
2022/07/18 10:22:12;;;;;;;1.45;0.60;;;28.50;43.40;;;;;;5061197;28;20193;-78
2022/07/18 10:24:41;;;;;;;2.90;0.68;;;28.50;43.40;;;;;;5066491;28;20182;-78
2022/07/18 10:27:13;;;;;;;1.15;0.60;;;28.60;43.10;;;;;;5062097;28;20217;-76
2022/07/18 10:30:12;;;;;;;1.50;0.68;;;28.60;43.60;;;;;;5065288;28;20624;-75
2022/07/18 10:32:41;;;;;;;0.90;0.70;;;28.70;42.90;;;;;;5064688;28;20194;-76
2022/07/18 10:35:15;;;;;;;1.73;0.70;;;28.70;42.60;;;;;;5066804;28;20205;-76
2022/07/18 10:37:44;;;;;;;2.13;0.60;;;28.80;42.80;;;;;;5059216;28;20235;-75
2022/07/18 10:40:29;;;;;;;2.08;0.70;;;28.90;42.90;;;;;;5064256;28;20198;-77
2022/07/18 10:43:36;;;;;;;1.92;0.80;;;28.90;42.70;;;;;;5067312;28;20223;-76
2022/07/18 10:46:05;;;;;;;1.45;0.70;;;29.00;42.30;;;;;;5056990;28;20209;-77
2022/07/18 10:48:54;;;;;;;2.70;0.90;;;29.00;42.40;;;;;;5060278;28;20462;-76
2022/07/18 10:51:36;;;;;;;1.73;0.68;;;29.20;42.50;;;;;;5066328;28;20699;-75
2022/07/18 10:54:13;;;;;;;1.27;0.65;;;29.10;42.40;;;;;;5059511;28;20206;-75
2022/07/18 10:57:10;;;;;;;2.35;0.70;;;29.20;42.50;;;;;;5065127;28;20190;-76
2022/07/18 11:00:00;;;;;;;3.15;0.70;;;29.30;42.50;;;;;;5063330;28;20190;-76
2022/07/18 11:02:36;;;;;;;2.97;0.63;;;29.30;42.50;;;;;;5065420;28;20205;-76
2022/07/18 11:05:35;;;;;;;1.40;0.70;;;29.30;42.20;;;;;;5075701;28;20201;-76
2022/07/18 11:08:24;;;;;;;2.20;0.50;;;29.40;42.10;;;;;;5054611;28;20302;-75
2022/07/18 11:11:19;;;;;;;3.58;0.70;;;29.40;41.10;;;;;;5065045;28;20277;-75
2022/07/18 11:13:49;;;;;;;1.40;0.70;;;29.40;41.20;;;;;;5039468;28;21073;-76
2022/07/18 11:16:24;;;;;;;1.83;0.70;;;29.50;41.50;;;;;;5068079;28;20263;-75
2022/07/18 11:19:19;;;;;;;1.55;0.77;;;29.60;41.30;;;;;;5058498;28;20206;-76
2022/07/18 11:21:47;;;;;;;2.22;0.90;;;29.60;41.50;;;;;;5063081;28;20198;-76
2022/07/18 11:24:17;;;;;;;0.90;0.70;;;29.60;41.70;;;;;;5071481;28;20210;-75
2022/07/18 11:26:47;;;;;;;1.98;0.73;;;29.70;41.80;;;;;;5071646;28;20193;-76
2022/07/18 11:29:17;;;;;;;1.05;0.70;;;29.70;41.80;;;;;;5065087;28;20195;-76
2022/07/18 11:31:48;;;;;;;2.50;0.77;;;29.80;41.80;;;;;;5069529;28;20201;-76
2022/07/18 11:34:17;;;;;;;2.08;0.90;;;29.80;41.70;;;;;;5069077;28;20206;-76
2022/07/18 11:36:47;;;;;;;1.63;0.77;;;29.90;41.40;;;;;;5065057;28;20195;-77
2022/07/18 11:39:29;;;;;;;0.77;0.60;;;29.90;41.30;;;;;;5062421;28;20194;-77
2022/07/18 11:41:58;;;;;;;1.13;0.70;;;29.90;40.40;;;;;;5067142;28;20200;-78
2022/07/18 11:44:29;;;;;;;2.05;0.90;;;29.90;40.30;;;;;;5069204;28;20298;-76
2022/07/18 11:47:06;;;;;;;1.77;0.93;;;29.90;40.60;;;;;;5057528;28;20195;-76
2022/07/18 11:49:34;;;;;;;2.63;0.70;;;29.90;40.50;;;;;;5062189;28;20535;-77
2022/07/18 11:52:04;;;;;;;1.83;0.60;;;29.90;40.70;;;;;;5066614;28;20215;-77
2022/07/18 11:54:34;;;;;;;2.30;0.63;;;29.90;40.30;;;;;;5067761;28;20926;-77
2022/07/18 11:57:03;;;;;;;3.70;0.90;;;29.90;40.20;;;;;;5060558;28;20675;-76
2022/07/18 11:59:43;;;;;;;1.05;0.60;;;30.00;40.60;;;;;;5054247;28;20186;-76
2022/07/18 12:02:13;;;;;;;2.10;0.70;;;30.10;40.90;;;;;;5065106;28;20254;-76
2022/07/18 12:04:42;;;;;;;1.20;0.80;;;30.10;40.00;;;;;;5056405;28;20205;-77
2022/07/18 12:07:19;;;;;;;2.60;0.65;;;30.10;40.00;;;;;;5064934;28;20205;-76
2022/07/18 12:09:50;;;;;;;2.20;0.88;;;30.10;40.00;;;;;;5062975;28;20194;-78
2022/07/18 12:12:21;;;;;;;2.35;0.70;;;30.20;40.30;;;;;;5067800;28;20218;-76
2022/07/18 12:14:58;;;;;;;1.33;0.70;;;30.20;39.80;;;;;;5069447;28;20327;-76
2022/07/18 12:17:27;;;;;;;3.72;0.80;;;30.20;39.80;;;;;;5054050;28;20194;-77
2022/07/18 12:20:10;;;;;;;1.55;0.65;;;30.20;39.50;;;;;;5061789;28;20213;-76
2022/07/18 12:23:07;;;;;;;1.08;0.63;;;30.30;40.00;;;;;;5071293;28;20197;-76
2022/07/18 12:25:39;;;;;;;1.30;0.70;;;30.40;40.30;;;;;;5062475;28;20194;-76
2022/07/18 12:28:15;;;;;;;5.45;0.98;;;30.40;40.40;;;;;;5065077;28;20184;-77
2022/07/18 12:30:45;;;;;;;2.63;0.80;;;30.40;38.90;;;;;;5063380;28;20183;-76
2022/07/18 12:33:14;;;;;;;3.53;0.75;;;30.50;39.40;;;;;;5058143;28;20195;-75
2022/07/18 12:35:43;;;;;;;2.03;0.80;;;30.60;39.30;;;;;;5060531;28;20221;-75
2022/07/18 12:38:14;;;;;;;2.58;0.68;;;30.60;39.30;;;;;;5063659;28;20836;-76
2022/07/18 12:40:47;;;;;;;1.45;0.82;;;30.60;39.20;;;;;;5059167;28;20183;-76
2022/07/18 12:43:18;;;;;;;1.67;0.70;;;30.60;39.10;;;;;;5069473;28;20194;-75
2022/07/18 12:45:46;;;;;;;2.63;0.70;;;30.70;39.40;;;;;;5060033;28;20221;-76
2022/07/18 12:48:15;;;;;;;1.95;0.80;;;30.70;39.40;;;;;;5073639;28;20215;-75
2022/07/18 12:50:44;;;;;;;1.30;0.60;;;30.80;39.50;;;;;;5063751;28;20194;-75
2022/07/18 12:53:13;;;;;;;1.90;0.90;;;30.80;39.30;;;;;;5063227;28;20835;-76
2022/07/18 12:55:42;;;;;;;1.50;0.70;;;30.80;39.20;;;;;;5061053;28;20214;-76
2022/07/18 12:58:12;;;;;;;2.67;1.10;;;30.80;38.80;;;;;;5076309;28;20194;-77
2022/07/18 13:00:40;;;;;;;5.68;1.00;;;30.90;38.80;;;;;;5068885;28;20197;-76
2022/07/18 13:03:09;;;;;;;1.58;0.70;;;30.90;38.70;;;;;;5066458;28;20290;-75
2022/07/18 13:05:37;;;;;;;2.22;0.68;;;30.90;38.30;;;;;;5072787;28;20190;-75
2022/07/18 13:08:07;;;;;;;1.10;0.73;;;30.90;38.20;;;;;;5064274;28;20899;-75
2022/07/18 13:10:37;;;;;;;1.15;0.70;;;30.90;38.10;;;;;;5067977;28;20204;-76
2022/07/18 13:13:06;;;;;;;0.90;0.60;;;30.90;38.40;;;;;;5062092;28;20787;-76